Time;durP1;ratioP1;P1;durP2;ratioP2;P2;SDS_P1;SDS_P2;PMS_P1;PMS_P2;Temp;Humidity;BMP_temperature;BMP_pressure;BME280_temperature;BME280_humidity;BME280_pressure;Samples;Min_cycle;Max_cycle;Signal;HPM_P1;HPM_P2
2023/08/14 00:01:07;;;;;;;6.53;5.63;;;;;;;;;;9991504;28;20046;-73
2023/08/14 00:05:59;;;;;;;6.80;6.20;;;;;;;;;;10023778;28;20100;-73
2023/08/14 00:10:51;;;;;;;7.22;6.03;;;;;;;;;;10012735;28;20072;-71
2023/08/14 00:15:43;;;;;;;8.38;6.55;;;;;;;;;;10037539;28;20034;-72
2023/08/14 00:20:35;;;;;;;7.25;6.60;;;;;;;;;;10021516;28;20601;-72
2023/08/14 00:25:27;;;;;;;8.27;6.75;;;;;;;;;;10020480;28;20046;-72
2023/08/14 00:30:19;;;;;;;8.07;7.28;;;;;;;;;;10022119;28;20045;-72
2023/08/14 00:35:11;;;;;;;7.13;6.43;;;;;;;;;;10023802;28;20128;-72
2023/08/14 00:40:03;;;;;;;6.43;5.82;;;;;;;;;;10020919;28;20517;-70
2023/08/14 00:44:55;;;;;;;8.00;7.10;;;;;;;;;;9994777;28;20049;-72
2023/08/14 00:49:47;;;;;;;7.30;6.70;;;;;;;;;;9995632;28;20481;-72
2023/08/14 00:54:39;;;;;;;7.10;6.55;;;;;;;;;;9980775;28;20472;-71
2023/08/14 00:59:32;;;;;;;8.07;7.47;;;;;;;;;;10055591;28;20038;-72
2023/08/14 01:04:24;;;;;;;9.35;7.70;;;;;;;;;;10058743;28;20084;-72
2023/08/14 01:09:16;;;;;;;8.23;7.53;;;;;;;;;;10067730;28;20046;-72
2023/08/14 01:14:18;;;;;;;10.38;7.95;;;;;;;;;;10059625;28;20057;-70
2023/08/14 01:19:26;;;;;;;8.35;7.47;;;;;;;;;;10096288;28;20163;-73
2023/08/14 01:24:46;;;;;;;8.20;7.50;;;;;;;;;;10039812;28;20387;-71
2023/08/14 01:29:38;;;;;;;8.02;7.30;;;;;;;;;;10056911;28;20796;-72
2023/08/14 01:34:30;;;;;;;8.02;7.32;;;;;;;;;;10111658;28;20049;-73
2023/08/14 01:39:28;;;;;;;8.77;6.57;;;;;;;;;;10061567;28;20056;-72
2023/08/14 01:44:21;;;;;;;;;;;;;;;;;;10075844;28;20140;-72
2023/08/14 01:49:14;;;;;;;8.93;7.10;;;;;;;;;;10059652;28;19936;-70
2023/08/14 01:54:07;;;;;;;9.88;6.93;;;;;;;;;;10059124;28;20749;-73
2023/08/14 01:58:58;;;;;;;11.30;8.23;;;;;;;;;;10058204;28;20141;-72
2023/08/14 02:03:50;;;;;;;7.90;7.30;;;;;;;;;;10062036;28;20076;-74
2023/08/14 02:08:42;;;;;;;10.25;7.57;;;;;;;;;;10063387;28;20056;-75
2023/08/14 02:13:34;;;;;;;11.52;7.72;;;;;;;;;;10068128;28;20107;-71
2023/08/14 02:18:26;;;;;;;8.60;7.57;;;;;;;;;;10049489;28;20073;-72
2023/08/14 02:23:18;;;;;;;9.90;8.35;;;;;;;;;;10042358;28;20033;-72
2023/08/14 02:28:11;;;;;;;8.23;7.53;;;;;;;;;;10099091;28;20061;-72
2023/08/14 02:33:03;;;;;;;8.50;7.80;;;;;;;;;;10073779;28;20101;-72
2023/08/14 02:37:55;;;;;;;8.93;8.13;;;;;;;;;;10064997;28;20375;-72
2023/08/14 02:42:47;;;;;;;7.35;6.80;;;;;;;;;;10069561;28;20129;-74
2023/08/14 02:47:39;;;;;;;8.90;8.00;;;;;;;;;;10037918;28;20046;-74
2023/08/14 02:52:31;;;;;;;10.27;9.32;;;;;;;;;;10053550;28;20117;-74
2023/08/14 02:57:22;;;;;;;8.02;7.43;;;;;;;;;;10065771;28;20049;-73
2023/08/14 03:02:14;;;;;;;8.82;8.02;;;;;;;;;;10065216;28;20128;-74
2023/08/14 03:07:07;;;;;;;8.63;7.90;;;;;;;;;;10067733;28;20045;-72
2023/08/14 03:11:59;;;;;;;8.88;8.07;;;;;;;;;;10060043;28;20111;-71
2023/08/14 03:16:51;;;;;;;8.57;7.60;;;;;;;;;;10064289;28;20132;-72
2023/08/14 03:21:43;;;;;;;11.32;9.57;;;;;;;;;;10062173;28;20501;-72
2023/08/14 03:26:34;;;;;;;9.23;8.43;;;;;;;;;;10056603;28;20045;-72
2023/08/14 03:31:27;;;;;;;10.25;8.48;;;;;;;;;;10062654;28;20079;-72
2023/08/14 03:36:20;;;;;;;10.52;8.65;;;;;;;;;;10063637;28;20060;-72
2023/08/14 03:41:13;;;;;;;8.77;8.07;;;;;;;;;;10078260;28;20443;-71
2023/08/14 03:46:05;;;;;;;9.98;9.07;;;;;;;;;;10084889;28;20053;-70
2023/08/14 03:50:57;;;;;;;8.65;7.95;;;;;;;;;;10066067;28;20424;-71
2023/08/14 03:55:49;;;;;;;9.43;8.63;;;;;;;;;;10063015;28;20049;-71
2023/08/14 04:00:41;;;;;;;9.43;8.63;;;;;;;;;;10071140;28;20049;-71
2023/08/14 04:05:38;;;;;;;8.30;7.60;;;;;;;;;;10063544;28;20103;-72
2023/08/14 04:10:29;;;;;;;8.73;8.10;;;;;;;;;;10063668;28;20044;-71
2023/08/14 04:15:22;;;;;;;9.18;8.38;;;;;;;;;;10063918;28;20053;-72
2023/08/14 04:20:14;;;;;;;11.07;9.35;;;;;;;;;;10065223;28;20049;-72
2023/08/14 04:25:06;;;;;;;10.95;9.13;;;;;;;;;;10062977;28;20037;-76
2023/08/14 04:29:58;;;;;;;9.27;8.38;;;;;;;;;;10062238;28;20072;-75
2023/08/14 04:34:50;;;;;;;10.40;8.65;;;;;;;;;;10062054;28;20041;-72
2023/08/14 04:39:41;;;;;;;9.07;8.30;;;;;;;;;;10056196;28;20125;-75
2023/08/14 04:44:33;;;;;;;9.35;8.55;;;;;;;;;;10062591;28;20058;-71
2023/08/14 04:49:26;;;;;;;10.32;9.43;;;;;;;;;;10060172;28;20120;-72
2023/08/14 04:54:18;;;;;;;9.48;8.52;;;;;;;;;;10059432;28;20056;-72
2023/08/14 04:59:10;;;;;;;10.07;9.23;;;;;;;;;;10062437;28;20049;-72
2023/08/14 05:04:02;;;;;;;8.07;7.30;;;;;;;;;;10061210;28;20049;-72
2023/08/14 05:08:54;;;;;;;9.57;8.65;;;;;;;;;;10059849;28;20063;-73
2023/08/14 05:13:47;;;;;;;11.82;7.93;;;;;;;;;;10037050;28;20054;-72
2023/08/14 05:18:39;;;;;;;8.23;7.63;;;;;;;;;;10055060;28;20470;-72
2023/08/14 05:23:31;;;;;;;10.80;8.98;;;;;;;;;;10060224;28;20042;-72
2023/08/14 05:28:23;;;;;;;8.98;8.32;;;;;;;;;;10061442;28;20037;-71
2023/08/14 05:33:15;;;;;;;9.30;8.50;;;;;;;;;;10060927;28;20064;-75
2023/08/14 05:38:07;;;;;;;9.63;8.65;;;;;;;;;;10061710;28;20504;-73
2023/08/14 05:43:07;;;;;;;9.38;8.35;;;;;;;;;;10062721;28;20507;-72
2023/08/14 05:48:00;;;;;;;9.98;8.98;;;;;;;;;;10067722;28;20530;-71
2023/08/14 05:52:54;;;;;;;14.75;11.48;;;;;;;;;;10070220;28;20050;-72
2023/08/14 05:57:46;;;;;;;9.85;9.05;;;;;;;;;;10068447;28;20057;-73
2023/08/14 06:02:38;;;;;;;10.40;9.52;;;;;;;;;;10068596;28;20124;-73
2023/08/14 06:07:30;;;;;;;12.48;11.32;;;;;;;;;;10067690;28;20053;-74
2023/08/14 06:12:22;;;;;;;11.77;10.57;;;;;;;;;;10064642;28;20120;-73
2023/08/14 06:17:14;;;;;;;11.80;10.70;;;;;;;;;;10062775;28;20171;-73
2023/08/14 06:22:06;;;;;;;12.07;10.98;;;;;;;;;;10067567;28;20041;-73
2023/08/14 06:26:58;;;;;;;11.98;10.95;;;;;;;;;;10064292;28;20103;-74
2023/08/14 06:31:49;;;;;;;12.32;11.23;;;;;;;;;;10032499;28;20128;-74
2023/08/14 06:36:42;;;;;;;11.55;10.50;;;;;;;;;;10033495;28;20077;-74
2023/08/14 06:41:34;;;;;;;14.70;13.40;;;;;;;;;;10062556;28;20033;-74
2023/08/14 06:46:29;;;;;;;16.15;14.52;;;;;;;;;;10062417;28;20116;-73
2023/08/14 06:51:21;;;;;;;15.52;13.90;;;;;;;;;;10061883;28;20084;-75
2023/08/14 06:56:13;;;;;;;13.85;12.50;;;;;;;;;;10059894;28;20053;-74
2023/08/14 07:01:06;;;;;;;12.80;11.70;;;;;;;;;;10059265;28;20042;-74
2023/08/14 07:05:58;;;;;;;12.45;11.35;;;;;;;;;;10081285;28;20067;-74
2023/08/14 07:10:50;;;;;;;12.88;11.77;;;;;;;;;;10065433;28;20052;-74
2023/08/14 07:15:42;;;;;;;11.32;10.50;;;;;;;;;;10063023;28;20391;-73
2023/08/14 07:20:34;;;;;;;11.43;10.27;;;;;;;;;;10063160;28;20052;-74
2023/08/14 07:25:26;;;;;;;11.70;10.80;;;;;;;;;;10063774;28;20073;-74
2023/08/14 07:30:18;;;;;;;11.88;10.88;;;;;;;;;;10063025;28;20084;-73
2023/08/14 07:35:10;;;;;;;15.23;12.07;;;;;;;;;;10040146;28;20045;-73
2023/08/14 07:40:02;;;;;;;12.77;11.52;;;;;;;;;;10058052;28;20107;-74
2023/08/14 07:44:54;;;;;;;11.48;10.27;;;;;;;;;;10062906;28;20132;-74
2023/08/14 07:49:46;;;;;;;22.33;13.20;;;;;;;;;;10062864;28;20134;-73
2023/08/14 07:54:38;;;;;;;14.82;13.55;;;;;;;;;;10053701;28;20053;-74
2023/08/14 07:59:31;;;;;;;16.20;14.50;;;;;;;;;;10049007;28;20088;-73
2023/08/14 08:04:23;;;;;;;13.10;11.90;;;;;;;;;;10061167;28;20396;-73
2023/08/14 08:09:18;;;;;;;13.77;12.77;;;;;;;;;;10062056;28;20071;-74
2023/08/14 08:14:09;;;;;;;14.55;12.85;;;;;;;;;;10063976;28;20049;-73
2023/08/14 08:19:05;;;;;;;13.15;12.18;;;;;;;;;;10062650;28;20044;-74
2023/08/14 08:23:57;;;;;;;12.70;11.80;;;;;;;;;;10060222;28;20072;-74
2023/08/14 08:28:49;;;;;;;13.32;11.93;;;;;;;;;;10047953;28;20663;-72
2023/08/14 08:33:40;;;;;;;12.93;11.02;;;;;;;;;;10046839;28;20060;-73
2023/08/14 08:38:32;;;;;;;12.43;11.45;;;;;;;;;;10062717;28;20042;-73
2023/08/14 08:43:24;;;;;;;11.07;9.95;;;;;;;;;;10062374;28;20042;-72
2023/08/14 08:48:20;;;;;;;14.02;11.43;;;;;;;;;;10057230;28;20037;-73
2023/08/14 08:53:13;;;;;;;13.23;12.13;;;;;;;;;;10061094;28;20079;-72
2023/08/14 08:58:05;;;;;;;12.13;11.05;;;;;;;;;;10058685;28;20517;-72
2023/08/14 09:02:57;;;;;;;12.45;11.32;;;;;;;;;;10057857;28;20049;-74
2023/08/14 09:07:49;;;;;;;13.63;12.32;;;;;;;;;;10060614;28;20136;-74
2023/08/14 09:12:41;;;;;;;11.57;10.05;;;;;;;;;;10060732;28;20095;-71
2023/08/14 09:17:33;;;;;;;13.18;11.98;;;;;;;;;;10055910;28;20053;-71
2023/08/14 09:22:27;;;;;;;14.80;13.50;;;;;;;;;;10058899;28;20095;-73
2023/08/14 09:27:19;;;;;;;13.70;12.40;;;;;;;;;;10057829;28;20088;-72
2023/08/14 09:32:11;;;;;;;13.27;11.85;;;;;;;;;;10062398;28;20499;-71
2023/08/14 09:37:06;;;;;;;11.80;10.85;;;;;;;;;;10065949;28;20048;-73
2023/08/14 09:41:59;;;;;;;10.43;9.23;;;;;;;;;;10083564;28;20383;-73
2023/08/14 09:46:54;;;;;;;9.90;9.00;;;;;;;;;;10058279;28;20415;-73
2023/08/14 09:51:54;;;;;;;8.70;7.90;;;;;;;;;;10050533;28;20136;-71
2023/08/14 09:56:47;;;;;;;10.75;8.32;;;;;;;;;;10075132;28;20053;-72
2023/08/14 10:01:40;;;;;;;7.60;6.93;;;;;;;;;;10059491;28;20084;-72
2023/08/14 10:06:33;;;;;;;8.98;7.88;;;;;;;;;;10065763;28;20057;-71
2023/08/14 10:11:28;;;;;;;7.93;6.78;;;;;;;;;;10023055;28;20129;-75
2023/08/14 10:16:27;;;;;;;8.27;7.47;;;;;;;;;;10059598;28;20160;-72
2023/08/14 10:21:20;;;;;;;6.57;5.95;;;;;;;;;;10060126;28;20053;-72
2023/08/14 10:26:13;;;;;;;8.18;6.60;;;;;;;;;;10058959;28;20139;-72
2023/08/14 10:31:05;;;;;;;7.10;6.50;;;;;;;;;;10062267;28;20042;-72
2023/08/14 10:35:58;;;;;;;8.45;7.63;;;;;;;;;;10030994;28;20378;-69
2023/08/14 10:40:52;;;;;;;9.75;7.25;;;;;;;;;;10066240;28;20041;-75
2023/08/14 10:45:51;;;;;;;8.65;5.63;;;;;;;;;;10067085;28;20076;-74
2023/08/14 10:50:57;;;;;;;14.43;7.97;;;;;;;;;;10066567;28;20077;-74
2023/08/14 10:55:49;;;;;;;8.57;5.63;;;;;;;;;;10065651;28;20049;-74
2023/08/14 11:00:44;;;;;;;7.55;6.10;;;;;;;;;;10063514;28;20041;-74
2023/08/14 11:05:38;;;;;;;6.03;5.30;;;;;;;;;;10060902;28;20046;-73
2023/08/14 11:10:31;;;;;;;6.05;4.55;;;;;;;;;;10042995;28;20132;-74
2023/08/14 11:15:23;;;;;;;8.77;4.88;;;;;;;;;;10061151;28;20069;-73
2023/08/14 11:20:16;;;;;;;5.57;5.05;;;;;;;;;;10061663;28;20513;-68
2023/08/14 11:25:07;;;;;;;5.32;4.55;;;;;;;;;;10063965;28;20440;-68
2023/08/14 11:30:02;;;;;;;6.00;5.40;;;;;;;;;;10062307;28;20123;-69
2023/08/14 11:35:03;;;;;;;9.10;6.15;;;;;;;;;;10063153;28;20059;-68
2023/08/14 11:39:55;;;;;;;11.00;5.47;;;;;;;;;;10059576;28;20045;-67
2023/08/14 11:44:47;;;;;;;6.95;5.15;;;;;;;;;;10076153;28;20140;-69
2023/08/14 11:49:39;;;;;;;5.45;4.95;;;;;;;;;;10060282;28;20042;-69
2023/08/14 11:54:35;;;;;;;8.25;4.57;;;;;;;;;;10060159;28;20049;-68
2023/08/14 11:59:27;;;;;;;5.85;4.53;;;;;;;;;;10060453;28;20091;-67
2023/08/14 12:04:20;;;;;;;5.60;4.85;;;;;;;;;;10063734;28;20054;-69
2023/08/14 12:09:12;;;;;;;6.28;5.30;;;;;;;;;;10062193;28;20128;-69
2023/08/14 12:14:05;;;;;;;6.88;4.82;;;;;;;;;;10059848;28;20119;-69
2023/08/14 12:18:57;;;;;;;5.40;4.35;;;;;;;;;;10062405;28;20042;-68
2023/08/14 12:23:53;;;;;;;5.10;3.38;;;;;;;;;;10063522;28;20049;-68
2023/08/14 12:28:45;;;;;;;5.15;4.65;;;;;;;;;;10060065;28;20045;-68
2023/08/14 12:33:40;;;;;;;8.35;5.10;;;;;;;;;;10059109;28;20048;-68
2023/08/14 12:38:32;;;;;;;6.35;3.45;;;;;;;;;;10059748;28;20053;-69
2023/08/14 12:43:24;;;;;;;5.65;3.42;;;;;;;;;;10057633;28;20454;-70
2023/08/14 12:48:29;;;;;;;4.65;4.20;;;;;;;;;;10067151;28;20057;-71
2023/08/14 12:53:21;;;;;;;4.20;3.80;;;;;;;;;;10059337;28;20803;-69
2023/08/14 12:58:13;;;;;;;4.60;3.60;;;;;;;;;;10062860;28;20053;-70
2023/08/14 13:03:07;;;;;;;5.88;3.13;;;;;;;;;;10058513;28;20099;-71
2023/08/14 13:08:00;;;;;;;5.75;3.28;;;;;;;;;;10059226;28;20096;-72
2023/08/14 13:12:56;;;;;;;4.78;3.13;;;;;;;;;;10061315;28;20049;-72
2023/08/14 13:17:48;;;;;;;6.40;4.18;;;;;;;;;;10060340;28;20472;-72
2023/08/14 13:22:41;;;;;;;4.57;3.45;;;;;;;;;;10056686;28;20532;-72
2023/08/14 13:27:33;;;;;;;4.40;4.00;;;;;;;;;;10046124;28;20454;-70
2023/08/14 13:32:30;;;;;;;5.68;3.95;;;;;;;;;;10059948;28;20099;-72
2023/08/14 13:37:22;;;;;;;4.60;3.85;;;;;;;;;;10061224;28;20588;-72
2023/08/14 13:42:14;;;;;;;4.97;3.22;;;;;;;;;;10060762;28;20494;-71
2023/08/14 13:47:06;;;;;;;3.75;3.00;;;;;;;;;;10062290;28;20045;-70
2023/08/14 13:51:58;;;;;;;4.95;3.53;;;;;;;;;;10063008;28;20438;-70
2023/08/14 13:56:49;;;;;;;3.13;2.67;;;;;;;;;;10060250;28;20050;-72
2023/08/14 14:01:45;;;;;;;4.85;2.70;;;;;;;;;;10061632;28;20045;-71
2023/08/14 14:06:37;;;;;;;6.00;3.10;;;;;;;;;;10067655;28;20103;-71
2023/08/14 14:11:28;;;;;;;4.30;2.85;;;;;;;;;;10065835;28;20055;-72
2023/08/14 14:16:22;;;;;;;3.47;2.70;;;;;;;;;;10064080;28;20480;-69
2023/08/14 14:21:14;;;;;;;4.80;2.72;;;;;;;;;;10054993;28;20033;-71
2023/08/14 14:26:05;;;;;;;4.47;3.28;;;;;;;;;;10053809;28;20060;-70
2023/08/14 14:30:57;;;;;;;6.35;3.97;;;;;;;;;;10068613;28;20531;-71
2023/08/14 14:35:49;;;;;;;3.47;3.20;;;;;;;;;;10058588;28;20052;-71
2023/08/14 14:40:41;;;;;;;4.82;3.00;;;;;;;;;;10064596;28;20550;-68
2023/08/14 14:45:33;;;;;;;4.03;3.25;;;;;;;;;;10066562;28;20092;-71
2023/08/14 14:50:26;;;;;;;6.03;2.97;;;;;;;;;;10055967;28;20376;-70
2023/08/14 14:55:21;;;;;;;2.92;2.50;;;;;;;;;;10059949;28;20045;-70
2023/08/14 15:00:13;;;;;;;6.30;2.78;;;;;;;;;;10061262;28;20140;-70
2023/08/14 15:05:05;;;;;;;4.00;2.50;;;;;;;;;;10061987;28;20115;-70
2023/08/14 15:10:05;;;;;;;4.30;2.35;;;;;;;;;;10061983;28;20045;-70
2023/08/14 15:14:57;;;;;;;3.90;2.72;;;;;;;;;;10061178;28;20049;-68
2023/08/14 15:19:49;;;;;;;5.63;3.15;;;;;;;;;;10062779;28;20056;-70
2023/08/14 15:24:41;;;;;;;3.28;2.60;;;;;;;;;;10062644;28;20144;-69
2023/08/14 15:29:32;;;;;;;3.65;2.53;;;;;;;;;;10076704;28;20636;-68
2023/08/14 15:34:24;;;;;;;4.28;2.42;;;;;;;;;;10059979;28;20497;-69
2023/08/14 15:39:16;;;;;;;2.88;2.58;;;;;;;;;;10060963;28;20068;-70
2023/08/14 15:44:08;;;;;;;7.82;2.75;;;;;;;;;;10063930;28;20092;-69
2023/08/14 15:49:00;;;;;;;3.30;2.55;;;;;;;;;;10067751;28;20103;-70
2023/08/14 15:53:52;;;;;;;3.40;2.65;;;;;;;;;;10057303;28;20073;-69
2023/08/14 15:58:45;;;;;;;5.53;2.08;;;;;;;;;;10057150;28;20049;-69
2023/08/14 16:03:37;;;;;;;5.88;2.38;;;;;;;;;;10042188;28;20042;-70
2023/08/14 16:08:29;;;;;;;4.28;3.15;;;;;;;;;;10060646;28;20415;-69
2023/08/14 16:13:21;;;;;;;4.25;2.70;;;;;;;;;;10062771;28;20045;-71
2023/08/14 16:18:13;;;;;;;4.50;2.90;;;;;;;;;;10062446;28;20041;-71
2023/08/14 16:23:04;;;;;;;4.50;2.38;;;;;;;;;;10063109;28;20049;-69
2023/08/14 16:27:56;;;;;;;4.05;2.55;;;;;;;;;;10061356;28;20566;-69
2023/08/14 16:32:48;;;;;;;4.03;2.90;;;;;;;;;;10061669;28;20132;-71
2023/08/14 16:37:40;;;;;;;3.55;2.83;;;;;;;;;;10061427;28;20528;-69
2023/08/14 16:42:32;;;;;;;4.72;2.42;;;;;;;;;;10062867;28;20069;-72
2023/08/14 16:47:24;;;;;;;2.85;2.40;;;;;;;;;;10064546;28;20049;-71
2023/08/14 16:52:16;;;;;;;6.60;3.22;;;;;;;;;;10060858;28;20044;-70
2023/08/14 16:57:07;;;;;;;6.68;2.60;;;;;;;;;;10058876;28;20129;-69
2023/08/14 17:01:59;;;;;;;3.67;3.05;;;;;;;;;;10066784;28;20128;-70
2023/08/14 17:06:51;;;;;;;7.47;2.80;;;;;;;;;;10064375;28;20403;-70
2023/08/14 17:11:43;;;;;;;5.88;2.90;;;;;;;;;;10064402;28;20064;-69
2023/08/14 17:16:35;;;;;;;6.07;2.90;;;;;;;;;;10062482;28;20065;-69
2023/08/14 17:21:27;;;;;;;3.90;3.00;;;;;;;;;;10064089;28;20083;-69
2023/08/14 17:26:19;;;;;;;5.18;3.53;;;;;;;;;;10063968;28;20460;-70
2023/08/14 17:31:11;;;;;;;3.22;2.63;;;;;;;;;;10060498;28;20152;-70
2023/08/14 17:36:03;;;;;;;4.07;3.47;;;;;;;;;;10060137;28;20464;-68
2023/08/14 17:40:55;;;;;;;5.45;3.17;;;;;;;;;;10054280;28;20511;-69
2023/08/14 17:45:49;;;;;;;7.65;3.28;;;;;;;;;;10084866;28;20041;-69
2023/08/14 17:50:41;;;;;;;5.65;3.42;;;;;;;;;;10070879;28;20045;-69
2023/08/14 17:55:33;;;;;;;6.05;4.25;;;;;;;;;;10077627;28;20084;-69
2023/08/14 18:00:24;;;;;;;5.13;4.10;;;;;;;;;;10071579;28;20049;-70
2023/08/14 18:05:16;;;;;;;6.05;3.63;;;;;;;;;;10062617;28;20037;-71
2023/08/14 18:10:09;;;;;;;7.00;3.33;;;;;;;;;;10037032;28;20068;-71
2023/08/14 18:15:01;;;;;;;4.78;3.40;;;;;;;;;;10061802;28;20037;-68
2023/08/14 18:19:53;;;;;;;6.22;3.50;;;;;;;;;;10059356;28;20086;-70
2023/08/14 18:24:45;;;;;;;5.22;3.40;;;;;;;;;;10066447;28;20065;-69
2023/08/14 18:29:36;;;;;;;7.35;3.55;;;;;;;;;;10099648;28;20060;-69
2023/08/14 18:34:28;;;;;;;6.53;3.42;;;;;;;;;;10065291;28;20049;-69
2023/08/14 18:39:20;;;;;;;4.53;3.42;;;;;;;;;;10070964;28;20055;-69
2023/08/14 18:44:12;;;;;;;6.35;3.65;;;;;;;;;;10071079;28;20042;-69
2023/08/14 18:49:04;;;;;;;4.03;3.63;;;;;;;;;;10069546;28;20136;-69
2023/08/14 18:53:56;;;;;;;3.95;3.55;;;;;;;;;;10068787;28;20063;-69
2023/08/14 18:58:49;;;;;;;7.32;3.58;;;;;;;;;;10069855;28;20041;-68
2023/08/14 19:03:41;;;;;;;3.83;3.45;;;;;;;;;;10069786;28;20432;-70
2023/08/14 19:08:33;;;;;;;10.23;5.25;;;;;;;;;;10068819;28;20136;-69
2023/08/14 19:13:25;;;;;;;7.35;3.97;;;;;;;;;;10074834;28;20123;-71
2023/08/14 19:18:17;;;;;;;4.68;4.03;;;;;;;;;;10068464;28;20053;-70
2023/08/14 19:23:12;;;;;;;5.55;4.75;;;;;;;;;;10063524;28;20041;-68
2023/08/14 19:28:05;;;;;;;7.88;5.07;;;;;;;;;;10066273;28;20045;-70
2023/08/14 19:33:12;;;;;;;5.30;4.43;;;;;;;;;;10062844;28;20357;-69
2023/08/14 19:38:04;;;;;;;7.72;4.25;;;;;;;;;;10077672;28;20041;-69
2023/08/14 19:42:56;;;;;;;4.95;3.70;;;;;;;;;;10068373;28;20329;-68
2023/08/14 19:47:49;;;;;;;4.43;3.90;;;;;;;;;;10062917;28;20050;-69
2023/08/14 19:52:41;;;;;;;5.75;3.75;;;;;;;;;;10060778;28;20034;-68
2023/08/14 19:57:32;;;;;;;6.32;4.22;;;;;;;;;;10061934;28;20045;-68
2023/08/14 20:02:26;;;;;;;7.20;3.92;;;;;;;;;;10061752;28;20399;-69
2023/08/14 20:07:18;;;;;;;5.22;3.83;;;;;;;;;;10063476;28;20053;-70
2023/08/14 20:12:10;;;;;;;4.68;4.03;;;;;;;;;;10052858;28;20416;-68
2023/08/14 20:17:02;;;;;;;4.22;3.90;;;;;;;;;;10065789;28;20103;-69
2023/08/14 20:21:54;;;;;;;6.82;4.38;;;;;;;;;;10066754;28;20045;-68
2023/08/14 20:26:46;;;;;;;12.48;4.55;;;;;;;;;;10066046;28;20041;-68
2023/08/14 20:31:39;;;;;;;7.65;4.55;;;;;;;;;;10065692;28;20131;-69
2023/08/14 20:36:31;;;;;;;11.75;5.28;;;;;;;;;;10065704;28;20048;-68
2023/08/14 20:41:22;;;;;;;4.55;3.85;;;;;;;;;;10064444;28;20068;-68
2023/08/14 20:46:14;;;;;;;4.30;3.80;;;;;;;;;;10065796;28;20052;-68
2023/08/14 20:51:06;;;;;;;6.13;3.75;;;;;;;;;;10064626;28;20054;-70
2023/08/14 20:55:58;;;;;;;6.82;4.30;;;;;;;;;;10064425;28;20049;-68
2023/08/14 21:00:50;;;;;;;6.70;3.88;;;;;;;;;;10065789;28;20499;-70
2023/08/14 21:05:46;;;;;;;6.10;4.70;;;;;;;;;;10062916;28;20041;-70
2023/08/14 21:10:43;;;;;;;4.55;4.15;;;;;;;;;;10065382;28;20132;-69
2023/08/14 21:15:35;;;;;;;5.28;4.78;;;;;;;;;;10064651;28;20476;-70
2023/08/14 21:20:27;;;;;;;5.90;5.05;;;;;;;;;;10064059;28;20037;-70
2023/08/14 21:25:18;;;;;;;6.32;5.20;;;;;;;;;;10064659;28;20049;-69
2023/08/14 21:30:11;;;;;;;6.38;5.55;;;;;;;;;;10064144;28;20092;-70
2023/08/14 21:35:04;;;;;;;5.40;4.53;;;;;;;;;;10046039;28;20038;-69
2023/08/14 21:39:56;;;;;;;5.38;4.82;;;;;;;;;;10025270;28;20455;-71
2023/08/14 21:44:50;;;;;;;7.15;5.43;;;;;;;;;;10064616;28;20493;-70
2023/08/14 21:49:42;;;;;;;7.68;4.53;;;;;;;;;;10063817;28;20163;-68
2023/08/14 21:54:34;;;;;;;8.43;5.35;;;;;;;;;;10062435;28;20081;-69
2023/08/14 21:59:27;;;;;;;9.95;4.93;;;;;;;;;;10054361;28;20104;-68
2023/08/14 22:04:19;;;;;;;5.80;5.20;;;;;;;;;;10024574;28;20038;-69
2023/08/14 22:09:11;;;;;;;5.60;4.63;;;;;;;;;;10058050;28;20148;-71
2023/08/14 22:14:03;;;;;;;4.65;4.25;;;;;;;;;;10050245;28;20053;-69
2023/08/14 22:18:55;;;;;;;6.13;5.18;;;;;;;;;;10025245;28;20037;-69
2023/08/14 22:23:47;;;;;;;6.22;5.13;;;;;;;;;;10027194;28;20133;-70
2023/08/14 22:28:39;;;;;;;8.27;6.18;;;;;;;;;;10050017;28;20541;-71
2023/08/14 22:33:31;;;;;;;5.82;4.88;;;;;;;;;;10069787;28;20096;-69
2023/08/14 22:38:23;;;;;;;4.85;4.45;;;;;;;;;;10070761;28;20049;-69
2023/08/14 22:43:16;;;;;;;5.40;4.95;;;;;;;;;;10070165;28;20128;-69
2023/08/14 22:48:08;;;;;;;5.60;4.80;;;;;;;;;;10070210;28;20468;-70
2023/08/14 22:53:00;;;;;;;4.80;4.38;;;;;;;;;;10052320;28;20091;-69
2023/08/14 22:57:55;;;;;;;6.18;5.00;;;;;;;;;;10069347;28;20088;-69
2023/08/14 23:02:47;;;;;;;7.68;4.50;;;;;;;;;;10077093;28;20053;-70
2023/08/14 23:07:39;;;;;;;5.68;4.90;;;;;;;;;;10068910;28;20061;-71
2023/08/14 23:12:31;;;;;;;7.05;4.80;;;;;;;;;;10051201;28;20045;-70
2023/08/14 23:17:23;;;;;;;10.02;4.78;;;;;;;;;;10053319;28;20045;-71
2023/08/14 23:22:15;;;;;;;5.00;4.53;;;;;;;;;;10060186;28;20088;-68
2023/08/14 23:27:07;;;;;;;8.05;5.53;;;;;;;;;;10060277;28;20056;-67
2023/08/14 23:31:59;;;;;;;6.15;5.45;;;;;;;;;;10068769;28;20415;-70
2023/08/14 23:36:51;;;;;;;5.60;5.10;;;;;;;;;;10064383;28;20048;-69
2023/08/14 23:41:43;;;;;;;5.57;3.97;;;;;;;;;;10058752;28;20045;-69
2023/08/14 23:46:35;;;;;;;6.05;4.72;;;;;;;;;;10065276;28;20057;-67
2023/08/14 23:51:27;;;;;;;7.28;5.05;;;;;;;;;;10067609;28;20045;-69
2023/08/14 23:56:19;;;;;;;5.07;4.68;;;;;;;;;;10068101;28;20435;-69
